sensor_id;sensor_type;location;lat;lon;timestamp;P1;durP1;ratioP1;P2;durP2;ratioP2
68484;SDS011;55472;50.060;21.960;2024-03-22T00:02:06;54.28;;;24.77;;
68484;SDS011;55472;50.060;21.960;2024-03-22T00:04:35;58.07;;;22.77;;
68484;SDS011;55472;50.060;21.960;2024-03-22T00:07:02;66.72;;;24.17;;
68484;SDS011;55472;50.060;21.960;2024-03-22T00:09:29;60.90;;;24.00;;
68484;SDS011;55472;50.060;21.960;2024-03-22T00:11:55;60.08;;;23.77;;
68484;SDS011;55472;50.060;21.960;2024-03-22T00:14:21;59.53;;;23.42;;
68484;SDS011;55472;50.060;21.960;2024-03-22T00:16:48;63.97;;;25.73;;
68484;SDS011;55472;50.060;21.960;2024-03-22T00:19:14;62.75;;;24.08;;
68484;SDS011;55472;50.060;21.960;2024-03-22T00:21:40;57.40;;;24.27;;
68484;SDS011;55472;50.060;21.960;2024-03-22T00:24:06;60.95;;;24.08;;
68484;SDS011;55472;50.060;21.960;2024-03-22T00:26:32;52.85;;;22.70;;
68484;SDS011;55472;50.060;21.960;2024-03-22T00:28:58;58.97;;;23.10;;
68484;SDS011;55472;50.060;21.960;2024-03-22T00:31:25;66.13;;;23.23;;
68484;SDS011;55472;50.060;21.960;2024-03-22T00:33:51;56.13;;;22.25;;
68484;SDS011;55472;50.060;21.960;2024-03-22T00:36:17;61.00;;;23.20;;
68484;SDS011;55472;50.060;21.960;2024-03-22T00:38:43;60.67;;;22.88;;
68484;SDS011;55472;50.060;21.960;2024-03-22T00:41:10;54.50;;;22.93;;
68484;SDS011;55472;50.060;21.960;2024-03-22T00:43:36;56.20;;;21.55;;
68484;SDS011;55472;50.060;21.960;2024-03-22T00:46:02;55.63;;;22.77;;
68484;SDS011;55472;50.060;21.960;2024-03-22T00:48:29;52.55;;;20.63;;
68484;SDS011;55472;50.060;21.960;2024-03-22T00:50:55;43.95;;;18.50;;
68484;SDS011;55472;50.060;21.960;2024-03-22T00:53:21;47.03;;;18.20;;
68484;SDS011;55472;50.060;21.960;2024-03-22T00:55:47;46.50;;;18.38;;
68484;SDS011;55472;50.060;21.960;2024-03-22T00:58:17;38.13;;;12.60;;
68484;SDS011;55472;50.060;21.960;2024-03-22T01:00:44;38.78;;;16.25;;
68484;SDS011;55472;50.060;21.960;2024-03-22T01:03:11;39.75;;;16.35;;
68484;SDS011;55472;50.060;21.960;2024-03-22T01:05:38;42.00;;;16.33;;
68484;SDS011;55472;50.060;21.960;2024-03-22T01:08:05;36.27;;;14.20;;
68484;SDS011;55472;50.060;21.960;2024-03-22T01:10:32;37.70;;;15.40;;
68484;SDS011;55472;50.060;21.960;2024-03-22T01:12:59;33.13;;;14.40;;
68484;SDS011;55472;50.060;21.960;2024-03-22T01:15:26;34.03;;;13.60;;
68484;SDS011;55472;50.060;21.960;2024-03-22T01:17:52;32.30;;;12.68;;
68484;SDS011;55472;50.060;21.960;2024-03-22T01:20:19;35.90;;;12.67;;
68484;SDS011;55472;50.060;21.960;2024-03-22T01:22:45;35.55;;;12.80;;
68484;SDS011;55472;50.060;21.960;2024-03-22T01:25:12;35.70;;;12.40;;
68484;SDS011;55472;50.060;21.960;2024-03-22T01:27:38;30.15;;;12.10;;
68484;SDS011;55472;50.060;21.960;2024-03-22T01:30:04;26.38;;;10.57;;
68484;SDS011;55472;50.060;21.960;2024-03-22T01:32:31;28.73;;;11.17;;
68484;SDS011;55472;50.060;21.960;2024-03-22T01:34:58;22.88;;;9.60;;
68484;SDS011;55472;50.060;21.960;2024-03-22T01:37:24;30.92;;;10.80;;
68484;SDS011;55472;50.060;21.960;2024-03-22T01:39:50;26.27;;;10.38;;
68484;SDS011;55472;50.060;21.960;2024-03-22T01:42:16;27.17;;;10.68;;
68484;SDS011;55472;50.060;21.960;2024-03-22T01:44:42;26.80;;;10.33;;
68484;SDS011;55472;50.060;21.960;2024-03-22T01:47:08;29.17;;;10.20;;
68484;SDS011;55472;50.060;21.960;2024-03-22T01:49:34;28.30;;;10.60;;
68484;SDS011;55472;50.060;21.960;2024-03-22T01:52:01;24.55;;;9.85;;
68484;SDS011;55472;50.060;21.960;2024-03-22T01:54:28;24.88;;;9.50;;
68484;SDS011;55472;50.060;21.960;2024-03-22T01:56:55;26.07;;;10.17;;
68484;SDS011;55472;50.060;21.960;2024-03-22T01:59:22;23.00;;;9.88;;
68484;SDS011;55472;50.060;21.960;2024-03-22T02:01:48;26.23;;;10.02;;
68484;SDS011;55472;50.060;21.960;2024-03-22T02:04:15;25.25;;;10.20;;
68484;SDS011;55472;50.060;21.960;2024-03-22T02:06:41;22.00;;;9.23;;
68484;SDS011;55472;50.060;21.960;2024-03-22T02:09:07;24.87;;;9.90;;
68484;SDS011;55472;50.060;21.960;2024-03-22T02:11:36;22.13;;;9.07;;
68484;SDS011;55472;50.060;21.960;2024-03-22T02:14:03;23.05;;;9.57;;
68484;SDS011;55472;50.060;21.960;2024-03-22T02:16:30;24.80;;;9.32;;
68484;SDS011;55472;50.060;21.960;2024-03-22T02:18:56;24.90;;;9.60;;
68484;SDS011;55472;50.060;21.960;2024-03-22T02:21:22;23.93;;;9.33;;
68484;SDS011;55472;50.060;21.960;2024-03-22T02:23:49;24.70;;;9.65;;
68484;SDS011;55472;50.060;21.960;2024-03-22T02:26:14;22.90;;;9.45;;
68484;SDS011;55472;50.060;21.960;2024-03-22T02:28:41;26.83;;;8.82;;
68484;SDS011;55472;50.060;21.960;2024-03-22T02:31:07;22.60;;;9.87;;
68484;SDS011;55472;50.060;21.960;2024-03-22T02:33:33;22.85;;;9.85;;
68484;SDS011;55472;50.060;21.960;2024-03-22T02:35:59;25.55;;;10.27;;
68484;SDS011;55472;50.060;21.960;2024-03-22T02:38:25;27.15;;;11.07;;
68484;SDS011;55472;50.060;21.960;2024-03-22T02:40:52;24.60;;;10.48;;
68484;SDS011;55472;50.060;21.960;2024-03-22T02:43:19;25.20;;;10.67;;
68484;SDS011;55472;50.060;21.960;2024-03-22T02:45:47;26.02;;;10.88;;
68484;SDS011;55472;50.060;21.960;2024-03-22T02:48:13;25.98;;;10.30;;
68484;SDS011;55472;50.060;21.960;2024-03-22T02:50:40;25.33;;;10.82;;
68484;SDS011;55472;50.060;21.960;2024-03-22T02:53:07;23.88;;;10.65;;
68484;SDS011;55472;50.060;21.960;2024-03-22T02:55:36;24.57;;;10.00;;
68484;SDS011;55472;50.060;21.960;2024-03-22T02:58:04;26.08;;;10.32;;
68484;SDS011;55472;50.060;21.960;2024-03-22T03:00:35;24.50;;;9.70;;
68484;SDS011;55472;50.060;21.960;2024-03-22T03:03:03;26.52;;;9.95;;
68484;SDS011;55472;50.060;21.960;2024-03-22T03:05:32;24.15;;;10.10;;
68484;SDS011;55472;50.060;21.960;2024-03-22T03:07:59;25.80;;;10.20;;
68484;SDS011;55472;50.060;21.960;2024-03-22T03:10:24;23.13;;;9.95;;
68484;SDS011;55472;50.060;21.960;2024-03-22T03:12:54;23.83;;;9.70;;
68484;SDS011;55472;50.060;21.960;2024-03-22T03:15:20;28.40;;;10.63;;
68484;SDS011;55472;50.060;21.960;2024-03-22T03:17:46;23.83;;;10.07;;
68484;SDS011;55472;50.060;21.960;2024-03-22T03:20:12;25.95;;;9.40;;
68484;SDS011;55472;50.060;21.960;2024-03-22T03:22:39;23.73;;;10.52;;
68484;SDS011;55472;50.060;21.960;2024-03-22T03:25:06;22.80;;;9.98;;
68484;SDS011;55472;50.060;21.960;2024-03-22T03:27:33;28.00;;;10.68;;
68484;SDS011;55472;50.060;21.960;2024-03-22T03:29:59;25.70;;;10.30;;
68484;SDS011;55472;50.060;21.960;2024-03-22T03:32:26;25.38;;;11.13;;
68484;SDS011;55472;50.060;21.960;2024-03-22T03:34:53;26.52;;;11.10;;
68484;SDS011;55472;50.060;21.960;2024-03-22T03:37:19;26.95;;;10.50;;
68484;SDS011;55472;50.060;21.960;2024-03-22T03:39:45;27.85;;;11.43;;
68484;SDS011;55472;50.060;21.960;2024-03-22T03:42:11;27.43;;;10.57;;
68484;SDS011;55472;50.060;21.960;2024-03-22T03:44:37;30.90;;;11.55;;
68484;SDS011;55472;50.060;21.960;2024-03-22T03:47:04;30.23;;;12.00;;
68484;SDS011;55472;50.060;21.960;2024-03-22T03:49:30;25.67;;;11.15;;
68484;SDS011;55472;50.060;21.960;2024-03-22T03:51:56;28.10;;;11.13;;
68484;SDS011;55472;50.060;21.960;2024-03-22T03:54:22;32.17;;;12.30;;
68484;SDS011;55472;50.060;21.960;2024-03-22T03:56:48;49.60;;;15.13;;
68484;SDS011;55472;50.060;21.960;2024-03-22T03:59:14;78.40;;;23.58;;
68484;SDS011;55472;50.060;21.960;2024-03-22T04:01:41;78.28;;;24.52;;
68484;SDS011;55472;50.060;21.960;2024-03-22T04:04:06;82.00;;;26.27;;
68484;SDS011;55472;50.060;21.960;2024-03-22T04:06:33;72.73;;;23.83;;
68484;SDS011;55472;50.060;21.960;2024-03-22T04:08:59;65.63;;;21.70;;
68484;SDS011;55472;50.060;21.960;2024-03-22T04:11:26;75.13;;;25.40;;
68484;SDS011;55472;50.060;21.960;2024-03-22T04:13:52;81.43;;;25.98;;
68484;SDS011;55472;50.060;21.960;2024-03-22T04:16:18;83.57;;;25.50;;
68484;SDS011;55472;50.060;21.960;2024-03-22T04:18:44;91.93;;;28.07;;
68484;SDS011;55472;50.060;21.960;2024-03-22T04:21:10;98.57;;;28.40;;
68484;SDS011;55472;50.060;21.960;2024-03-22T04:23:36;72.30;;;22.38;;
68484;SDS011;55472;50.060;21.960;2024-03-22T04:26:03;82.05;;;25.23;;
68484;SDS011;55472;50.060;21.960;2024-03-22T04:28:29;79.80;;;24.80;;
68484;SDS011;55472;50.060;21.960;2024-03-22T04:31:00;113.80;;;33.37;;
68484;SDS011;55472;50.060;21.960;2024-03-22T04:33:28;93.68;;;28.08;;
68484;SDS011;55472;50.060;21.960;2024-03-22T04:35:55;119.80;;;34.03;;
68484;SDS011;55472;50.060;21.960;2024-03-22T04:38:22;82.95;;;25.00;;
68484;SDS011;55472;50.060;21.960;2024-03-22T04:40:50;57.08;;;19.50;;
68484;SDS011;55472;50.060;21.960;2024-03-22T04:43:16;45.97;;;15.90;;
68484;SDS011;55472;50.060;21.960;2024-03-22T04:45:43;43.70;;;15.48;;
68484;SDS011;55472;50.060;21.960;2024-03-22T04:48:09;31.48;;;12.90;;
68484;SDS011;55472;50.060;21.960;2024-03-22T04:50:39;31.30;;;13.63;;
68484;SDS011;55472;50.060;21.960;2024-03-22T04:53:05;31.48;;;13.70;;
68484;SDS011;55472;50.060;21.960;2024-03-22T04:55:32;31.27;;;12.97;;
68484;SDS011;55472;50.060;21.960;2024-03-22T04:57:58;29.80;;;13.55;;
68484;SDS011;55472;50.060;21.960;2024-03-22T05:00:25;36.42;;;14.70;;
68484;SDS011;55472;50.060;21.960;2024-03-22T05:02:51;33.83;;;14.70;;
68484;SDS011;55472;50.060;21.960;2024-03-22T05:05:18;33.80;;;14.15;;
68484;SDS011;55472;50.060;21.960;2024-03-22T05:07:44;35.33;;;14.33;;
68484;SDS011;55472;50.060;21.960;2024-03-22T05:10:11;35.42;;;14.23;;
68484;SDS011;55472;50.060;21.960;2024-03-22T05:12:37;34.97;;;13.35;;
68484;SDS011;55472;50.060;21.960;2024-03-22T05:15:04;32.88;;;14.00;;
68484;SDS011;55472;50.060;21.960;2024-03-22T05:17:31;33.25;;;14.55;;
68484;SDS011;55472;50.060;21.960;2024-03-22T05:19:58;36.53;;;14.57;;
68484;SDS011;55472;50.060;21.960;2024-03-22T05:22:24;41.25;;;16.63;;
68484;SDS011;55472;50.060;21.960;2024-03-22T05:24:51;39.33;;;16.67;;
68484;SDS011;55472;50.060;21.960;2024-03-22T05:27:17;35.97;;;15.80;;
68484;SDS011;55472;50.060;21.960;2024-03-22T05:29:44;43.53;;;17.08;;
68484;SDS011;55472;50.060;21.960;2024-03-22T05:32:10;44.63;;;17.27;;
68484;SDS011;55472;50.060;21.960;2024-03-22T05:34:36;45.65;;;17.65;;
68484;SDS011;55472;50.060;21.960;2024-03-22T05:37:02;44.47;;;17.00;;
68484;SDS011;55472;50.060;21.960;2024-03-22T05:39:29;44.97;;;18.77;;
68484;SDS011;55472;50.060;21.960;2024-03-22T05:41:55;49.27;;;18.50;;
68484;SDS011;55472;50.060;21.960;2024-03-22T05:44:24;50.13;;;19.83;;
68484;SDS011;55472;50.060;21.960;2024-03-22T05:46:50;52.95;;;20.63;;
68484;SDS011;55472;50.060;21.960;2024-03-22T05:49:16;52.35;;;20.80;;
68484;SDS011;55472;50.060;21.960;2024-03-22T05:51:42;54.97;;;21.05;;
68484;SDS011;55472;50.060;21.960;2024-03-22T05:54:09;53.97;;;20.50;;
68484;SDS011;55472;50.060;21.960;2024-03-22T05:56:35;58.58;;;22.15;;
68484;SDS011;55472;50.060;21.960;2024-03-22T05:59:01;54.40;;;22.40;;
68484;SDS011;55472;50.060;21.960;2024-03-22T06:01:27;58.22;;;22.52;;
68484;SDS011;55472;50.060;21.960;2024-03-22T06:03:53;57.37;;;22.27;;
68484;SDS011;55472;50.060;21.960;2024-03-22T06:06:20;58.45;;;22.70;;
68484;SDS011;55472;50.060;21.960;2024-03-22T06:08:51;55.15;;;22.27;;
68484;SDS011;55472;50.060;21.960;2024-03-22T06:11:19;59.53;;;23.50;;
68484;SDS011;55472;50.060;21.960;2024-03-22T06:13:49;54.17;;;22.50;;
68484;SDS011;55472;50.060;21.960;2024-03-22T06:16:16;53.63;;;22.30;;
68484;SDS011;55472;50.060;21.960;2024-03-22T06:18:42;56.33;;;21.83;;
68484;SDS011;55472;50.060;21.960;2024-03-22T06:21:09;62.05;;;23.70;;
68484;SDS011;55472;50.060;21.960;2024-03-22T06:23:35;61.15;;;23.30;;
68484;SDS011;55472;50.060;21.960;2024-03-22T06:26:01;62.22;;;23.45;;
68484;SDS011;55472;50.060;21.960;2024-03-22T06:28:27;61.87;;;23.83;;
68484;SDS011;55472;50.060;21.960;2024-03-22T06:30:54;62.28;;;24.10;;
68484;SDS011;55472;50.060;21.960;2024-03-22T06:33:20;58.35;;;23.73;;
68484;SDS011;55472;50.060;21.960;2024-03-22T06:35:47;59.40;;;23.95;;
68484;SDS011;55472;50.060;21.960;2024-03-22T06:38:13;63.83;;;24.40;;
68484;SDS011;55472;50.060;21.960;2024-03-22T06:40:39;59.70;;;24.00;;
68484;SDS011;55472;50.060;21.960;2024-03-22T06:43:05;56.60;;;23.70;;
68484;SDS011;55472;50.060;21.960;2024-03-22T06:45:31;57.22;;;24.75;;
68484;SDS011;55472;50.060;21.960;2024-03-22T06:47:57;58.33;;;23.95;;
68484;SDS011;55472;50.060;21.960;2024-03-22T06:50:24;60.47;;;23.48;;
68484;SDS011;55472;50.060;21.960;2024-03-22T06:52:50;58.00;;;23.37;;
68484;SDS011;55472;50.060;21.960;2024-03-22T06:55:19;59.58;;;25.23;;
68484;SDS011;55472;50.060;21.960;2024-03-22T06:57:46;61.08;;;25.15;;
68484;SDS011;55472;50.060;21.960;2024-03-22T07:00:14;56.88;;;23.10;;
68484;SDS011;55472;50.060;21.960;2024-03-22T07:02:41;58.60;;;23.80;;
68484;SDS011;55472;50.060;21.960;2024-03-22T07:05:08;57.63;;;23.33;;
68484;SDS011;55472;50.060;21.960;2024-03-22T07:07:35;54.47;;;22.55;;
68484;SDS011;55472;50.060;21.960;2024-03-22T07:10:02;57.17;;;24.20;;
68484;SDS011;55472;50.060;21.960;2024-03-22T07:12:31;57.35;;;23.92;;
68484;SDS011;55472;50.060;21.960;2024-03-22T07:15:01;58.65;;;23.13;;
68484;SDS011;55472;50.060;21.960;2024-03-22T07:17:28;65.57;;;24.40;;
68484;SDS011;55472;50.060;21.960;2024-03-22T07:19:55;57.47;;;23.95;;
68484;SDS011;55472;50.060;21.960;2024-03-22T07:22:24;56.25;;;23.88;;
68484;SDS011;55472;50.060;21.960;2024-03-22T07:24:50;55.80;;;23.92;;
68484;SDS011;55472;50.060;21.960;2024-03-22T07:27:16;57.88;;;24.67;;
68484;SDS011;55472;50.060;21.960;2024-03-22T07:29:43;61.67;;;25.03;;
68484;SDS011;55472;50.060;21.960;2024-03-22T07:32:10;59.60;;;24.58;;
68484;SDS011;55472;50.060;21.960;2024-03-22T07:34:36;54.78;;;22.73;;
68484;SDS011;55472;50.060;21.960;2024-03-22T07:37:02;51.55;;;22.13;;
68484;SDS011;55472;50.060;21.960;2024-03-22T07:39:29;55.90;;;22.13;;
68484;SDS011;55472;50.060;21.960;2024-03-22T07:41:55;57.63;;;22.53;;
68484;SDS011;55472;50.060;21.960;2024-03-22T07:44:22;60.00;;;24.05;;
68484;SDS011;55472;50.060;21.960;2024-03-22T07:46:52;66.07;;;25.38;;
68484;SDS011;55472;50.060;21.960;2024-03-22T07:49:18;61.22;;;23.42;;
68484;SDS011;55472;50.060;21.960;2024-03-22T07:51:44;62.15;;;24.17;;
68484;SDS011;55472;50.060;21.960;2024-03-22T07:54:11;58.70;;;24.03;;
68484;SDS011;55472;50.060;21.960;2024-03-22T07:56:37;60.45;;;24.17;;
68484;SDS011;55472;50.060;21.960;2024-03-22T07:59:03;57.97;;;22.73;;
68484;SDS011;55472;50.060;21.960;2024-03-22T08:01:30;54.75;;;22.65;;
68484;SDS011;55472;50.060;21.960;2024-03-22T08:03:56;54.65;;;22.20;;
68484;SDS011;55472;50.060;21.960;2024-03-22T08:06:22;52.93;;;22.20;;
68484;SDS011;55472;50.060;21.960;2024-03-22T08:08:49;54.67;;;22.50;;
68484;SDS011;55472;50.060;21.960;2024-03-22T08:11:15;56.75;;;22.60;;
68484;SDS011;55472;50.060;21.960;2024-03-22T08:13:41;57.40;;;23.23;;
68484;SDS011;55472;50.060;21.960;2024-03-22T08:16:07;52.42;;;22.25;;
68484;SDS011;55472;50.060;21.960;2024-03-22T08:18:33;54.00;;;21.53;;
68484;SDS011;55472;50.060;21.960;2024-03-22T08:20:59;48.40;;;20.77;;
68484;SDS011;55472;50.060;21.960;2024-03-22T08:23:25;52.92;;;21.17;;
68484;SDS011;55472;50.060;21.960;2024-03-22T08:25:51;50.75;;;20.98;;
68484;SDS011;55472;50.060;21.960;2024-03-22T08:28:18;53.45;;;21.08;;
68484;SDS011;55472;50.060;21.960;2024-03-22T08:30:44;41.80;;;19.27;;
68484;SDS011;55472;50.060;21.960;2024-03-22T08:33:10;43.58;;;19.27;;
68484;SDS011;55472;50.060;21.960;2024-03-22T08:35:37;44.30;;;18.80;;
68484;SDS011;55472;50.060;21.960;2024-03-22T08:38:04;46.95;;;19.45;;
68484;SDS011;55472;50.060;21.960;2024-03-22T08:40:36;44.20;;;20.08;;
68484;SDS011;55472;50.060;21.960;2024-03-22T08:43:03;42.80;;;19.23;;
68484;SDS011;55472;50.060;21.960;2024-03-22T08:45:33;41.97;;;19.25;;
68484;SDS011;55472;50.060;21.960;2024-03-22T08:48:00;47.03;;;19.85;;
68484;SDS011;55472;50.060;21.960;2024-03-22T08:50:26;47.22;;;20.08;;
68484;SDS011;55472;50.060;21.960;2024-03-22T08:52:52;46.40;;;19.13;;
68484;SDS011;55472;50.060;21.960;2024-03-22T08:55:18;45.00;;;19.03;;
68484;SDS011;55472;50.060;21.960;2024-03-22T08:57:44;49.38;;;20.58;;
68484;SDS011;55472;50.060;21.960;2024-03-22T09:00:11;53.25;;;22.38;;
68484;SDS011;55472;50.060;21.960;2024-03-22T09:02:38;52.42;;;22.10;;
68484;SDS011;55472;50.060;21.960;2024-03-22T09:05:04;50.92;;;21.48;;
68484;SDS011;55472;50.060;21.960;2024-03-22T09:07:31;45.73;;;19.47;;
68484;SDS011;55472;50.060;21.960;2024-03-22T09:09:57;48.45;;;20.00;;
68484;SDS011;55472;50.060;21.960;2024-03-22T09:12:24;51.60;;;21.17;;
68484;SDS011;55472;50.060;21.960;2024-03-22T09:14:50;65.80;;;26.58;;
68484;SDS011;55472;50.060;21.960;2024-03-22T09:17:16;67.68;;;28.23;;
68484;SDS011;55472;50.060;21.960;2024-03-22T09:19:45;70.00;;;28.13;;
68484;SDS011;55472;50.060;21.960;2024-03-22T09:22:11;63.42;;;25.42;;
68484;SDS011;55472;50.060;21.960;2024-03-22T09:24:37;65.97;;;27.67;;
68484;SDS011;55472;50.060;21.960;2024-03-22T09:27:03;57.70;;;24.88;;
68484;SDS011;55472;50.060;21.960;2024-03-22T09:29:34;51.53;;;23.83;;
68484;SDS011;55472;50.060;21.960;2024-03-22T09:32:04;52.10;;;21.53;;
68484;SDS011;55472;50.060;21.960;2024-03-22T09:34:30;57.88;;;23.05;;
68484;SDS011;55472;50.060;21.960;2024-03-22T09:36:57;54.97;;;24.20;;
68484;SDS011;55472;50.060;21.960;2024-03-22T09:39:23;50.88;;;22.45;;
68484;SDS011;55472;50.060;21.960;2024-03-22T09:41:50;46.30;;;19.73;;
68484;SDS011;55472;50.060;21.960;2024-03-22T09:44:19;45.73;;;19.37;;
68484;SDS011;55472;50.060;21.960;2024-03-22T09:46:46;46.25;;;19.40;;
68484;SDS011;55472;50.060;21.960;2024-03-22T09:49:13;43.92;;;19.92;;
68484;SDS011;55472;50.060;21.960;2024-03-22T09:51:40;42.67;;;19.00;;
68484;SDS011;55472;50.060;21.960;2024-03-22T09:54:09;44.40;;;19.80;;
68484;SDS011;55472;50.060;21.960;2024-03-22T09:56:38;41.27;;;18.87;;
68484;SDS011;55472;50.060;21.960;2024-03-22T09:59:07;42.65;;;19.00;;
68484;SDS011;55472;50.060;21.960;2024-03-22T10:01:36;43.47;;;19.85;;
68484;SDS011;55472;50.060;21.960;2024-03-22T10:04:02;42.33;;;19.42;;
68484;SDS011;55472;50.060;21.960;2024-03-22T10:06:29;47.20;;;19.45;;
68484;SDS011;55472;50.060;21.960;2024-03-22T10:08:58;44.90;;;19.80;;
68484;SDS011;55472;50.060;21.960;2024-03-22T10:11:28;43.78;;;19.67;;
68484;SDS011;55472;50.060;21.960;2024-03-22T10:13:54;38.97;;;17.60;;
68484;SDS011;55472;50.060;21.960;2024-03-22T10:16:21;42.08;;;17.52;;
68484;SDS011;55472;50.060;21.960;2024-03-22T10:18:47;39.15;;;18.25;;
68484;SDS011;55472;50.060;21.960;2024-03-22T10:21:17;40.13;;;17.53;;
68484;SDS011;55472;50.060;21.960;2024-03-22T10:23:43;41.53;;;18.73;;
68484;SDS011;55472;50.060;21.960;2024-03-22T10:26:12;43.42;;;18.98;;
68484;SDS011;55472;50.060;21.960;2024-03-22T10:28:44;40.45;;;18.50;;
68484;SDS011;55472;50.060;21.960;2024-03-22T10:31:12;39.03;;;17.63;;
68484;SDS011;55472;50.060;21.960;2024-03-22T10:33:40;40.47;;;17.90;;
68484;SDS011;55472;50.060;21.960;2024-03-22T10:36:07;43.13;;;18.50;;
68484;SDS011;55472;50.060;21.960;2024-03-22T10:38:38;35.92;;;16.80;;
68484;SDS011;55472;50.060;21.960;2024-03-22T10:41:06;32.00;;;16.10;;
68484;SDS011;55472;50.060;21.960;2024-03-22T10:43:32;37.13;;;16.23;;
68484;SDS011;55472;50.060;21.960;2024-03-22T10:46:00;37.87;;;15.60;;
68484;SDS011;55472;50.060;21.960;2024-03-22T10:48:31;33.75;;;15.38;;
68484;SDS011;55472;50.060;21.960;2024-03-22T10:51:00;36.90;;;15.80;;
68484;SDS011;55472;50.060;21.960;2024-03-22T10:53:26;39.35;;;16.63;;
68484;SDS011;55472;50.060;21.960;2024-03-22T10:55:57;32.10;;;14.07;;
68484;SDS011;55472;50.060;21.960;2024-03-22T10:58:26;31.43;;;13.40;;
68484;SDS011;55472;50.060;21.960;2024-03-22T11:00:53;33.63;;;15.55;;
68484;SDS011;55472;50.060;21.960;2024-03-22T11:03:22;29.42;;;13.60;;
68484;SDS011;55472;50.060;21.960;2024-03-22T11:05:53;30.95;;;13.85;;
68484;SDS011;55472;50.060;21.960;2024-03-22T11:08:25;31.73;;;13.73;;
68484;SDS011;55472;50.060;21.960;2024-03-22T11:10:53;35.37;;;14.97;;
68484;SDS011;55472;50.060;21.960;2024-03-22T11:13:20;30.02;;;14.68;;
68484;SDS011;55472;50.060;21.960;2024-03-22T11:15:51;33.10;;;14.27;;
68484;SDS011;55472;50.060;21.960;2024-03-22T11:18:17;30.10;;;14.25;;
68484;SDS011;55472;50.060;21.960;2024-03-22T11:20:44;26.80;;;13.13;;
68484;SDS011;55472;50.060;21.960;2024-03-22T11:23:10;33.10;;;15.17;;
68484;SDS011;55472;50.060;21.960;2024-03-22T11:25:36;31.05;;;15.10;;
68484;SDS011;55472;50.060;21.960;2024-03-22T11:28:03;43.08;;;18.17;;
68484;SDS011;55472;50.060;21.960;2024-03-22T11:30:30;42.15;;;18.90;;
68484;SDS011;55472;50.060;21.960;2024-03-22T11:33:03;41.63;;;19.10;;
68484;SDS011;55472;50.060;21.960;2024-03-22T11:35:31;40.97;;;18.40;;
68484;SDS011;55472;50.060;21.960;2024-03-22T11:37:58;40.42;;;17.98;;
68484;SDS011;55472;50.060;21.960;2024-03-22T11:40:27;41.70;;;18.77;;
68484;SDS011;55472;50.060;21.960;2024-03-22T11:42:56;38.25;;;17.83;;
68484;SDS011;55472;50.060;21.960;2024-03-22T11:45:23;37.03;;;17.88;;
68484;SDS011;55472;50.060;21.960;2024-03-22T11:47:50;40.50;;;17.90;;
68484;SDS011;55472;50.060;21.960;2024-03-22T11:50:16;39.20;;;17.73;;
68484;SDS011;55472;50.060;21.960;2024-03-22T11:52:43;33.53;;;16.60;;
68484;SDS011;55472;50.060;21.960;2024-03-22T11:55:10;34.20;;;16.70;;
68484;SDS011;55472;50.060;21.960;2024-03-22T11:57:36;41.67;;;18.90;;
68484;SDS011;55472;50.060;21.960;2024-03-22T12:00:03;44.83;;;19.63;;
68484;SDS011;55472;50.060;21.960;2024-03-22T12:02:37;43.35;;;19.88;;
68484;SDS011;55472;50.060;21.960;2024-03-22T12:05:04;40.13;;;18.88;;
68484;SDS011;55472;50.060;21.960;2024-03-22T12:07:31;39.45;;;17.73;;
68484;SDS011;55472;50.060;21.960;2024-03-22T12:09:58;38.28;;;18.73;;
68484;SDS011;55472;50.060;21.960;2024-03-22T12:12:24;39.97;;;18.43;;
68484;SDS011;55472;50.060;21.960;2024-03-22T12:14:52;44.95;;;20.58;;
68484;SDS011;55472;50.060;21.960;2024-03-22T12:17:18;38.22;;;18.38;;
68484;SDS011;55472;50.060;21.960;2024-03-22T12:19:45;40.92;;;19.70;;
68484;SDS011;55472;50.060;21.960;2024-03-22T12:22:11;46.55;;;20.73;;
68484;SDS011;55472;50.060;21.960;2024-03-22T12:24:37;41.67;;;19.60;;
68484;SDS011;55472;50.060;21.960;2024-03-22T12:27:03;38.83;;;18.95;;
68484;SDS011;55472;50.060;21.960;2024-03-22T12:29:33;37.20;;;18.35;;
68484;SDS011;55472;50.060;21.960;2024-03-22T12:32:01;38.13;;;18.75;;
68484;SDS011;55472;50.060;21.960;2024-03-22T12:34:29;43.08;;;19.67;;
68484;SDS011;55472;50.060;21.960;2024-03-22T12:36:57;42.13;;;18.97;;
68484;SDS011;55472;50.060;21.960;2024-03-22T12:39:24;34.80;;;17.35;;
68484;SDS011;55472;50.060;21.960;2024-03-22T12:41:51;38.60;;;18.65;;
68484;SDS011;55472;50.060;21.960;2024-03-22T12:44:19;41.20;;;19.95;;
68484;SDS011;55472;50.060;21.960;2024-03-22T12:46:46;38.83;;;18.42;;
68484;SDS011;55472;50.060;21.960;2024-03-22T12:49:13;41.10;;;19.40;;
68484;SDS011;55472;50.060;21.960;2024-03-22T12:51:39;40.47;;;18.85;;
68484;SDS011;55472;50.060;21.960;2024-03-22T12:54:06;37.28;;;17.10;;
68484;SDS011;55472;50.060;21.960;2024-03-22T12:56:34;35.70;;;17.00;;
68484;SDS011;55472;50.060;21.960;2024-03-22T12:59:02;36.17;;;16.63;;
68484;SDS011;55472;50.060;21.960;2024-03-22T13:01:28;35.43;;;17.73;;
68484;SDS011;55472;50.060;21.960;2024-03-22T13:03:54;35.60;;;16.77;;
68484;SDS011;55472;50.060;21.960;2024-03-22T13:06:20;35.92;;;17.58;;
68484;SDS011;55472;50.060;21.960;2024-03-22T13:08:47;48.40;;;19.63;;
68484;SDS011;55472;50.060;21.960;2024-03-22T13:11:13;37.35;;;17.08;;
68484;SDS011;55472;50.060;21.960;2024-03-22T13:13:39;58.30;;;22.47;;
68484;SDS011;55472;50.060;21.960;2024-03-22T13:16:05;81.97;;;23.95;;
68484;SDS011;55472;50.060;21.960;2024-03-22T13:18:34;45.45;;;18.75;;
68484;SDS011;55472;50.060;21.960;2024-03-22T13:21:00;88.55;;;26.60;;
68484;SDS011;55472;50.060;21.960;2024-03-22T13:23:28;90.30;;;24.67;;
68484;SDS011;55472;50.060;21.960;2024-03-22T13:25:54;86.75;;;26.05;;
68484;SDS011;55472;50.060;21.960;2024-03-22T13:28:21;63.05;;;22.73;;
68484;SDS011;55472;50.060;21.960;2024-03-22T13:30:48;54.10;;;21.98;;
68484;SDS011;55472;50.060;21.960;2024-03-22T13:33:14;51.20;;;22.27;;
68484;SDS011;55472;50.060;21.960;2024-03-22T13:35:41;70.73;;;28.33;;
68484;SDS011;55472;50.060;21.960;2024-03-22T13:38:10;87.43;;;35.42;;
68484;SDS011;55472;50.060;21.960;2024-03-22T13:40:39;52.50;;;22.92;;
68484;SDS011;55472;50.060;21.960;2024-03-22T13:43:10;48.20;;;19.67;;
68484;SDS011;55472;50.060;21.960;2024-03-22T13:45:42;62.25;;;23.25;;
68484;SDS011;55472;50.060;21.960;2024-03-22T13:48:10;68.47;;;26.87;;
68484;SDS011;55472;50.060;21.960;2024-03-22T13:50:37;47.58;;;20.63;;
68484;SDS011;55472;50.060;21.960;2024-03-22T13:53:04;37.58;;;18.17;;
68484;SDS011;55472;50.060;21.960;2024-03-22T13:55:30;40.95;;;18.45;;
68484;SDS011;55472;50.060;21.960;2024-03-22T13:57:58;37.72;;;18.02;;
68484;SDS011;55472;50.060;21.960;2024-03-22T14:00:24;48.80;;;19.77;;
68484;SDS011;55472;50.060;21.960;2024-03-22T14:02:51;51.28;;;22.00;;
68484;SDS011;55472;50.060;21.960;2024-03-22T14:05:21;42.88;;;19.92;;
68484;SDS011;55472;50.060;21.960;2024-03-22T14:07:50;45.35;;;20.55;;